Time;durP1;ratioP1;P1;durP2;ratioP2;P2;SDS_P1;SDS_P2;PMS_P1;PMS_P2;Temp;Humidity;BMP_temperature;BMP_pressure;BME280_temperature;BME280_humidity;BME280_pressure;Samples;Min_cycle;Max_cycle;Signal;HPM_P1;HPM_P2
2023/07/21 00:01:50;;;;;;;3.20;2.90;;;;;;;18.11;88.83;99260.06;5054499;28;20124;-82
2023/07/21 00:04:17;;;;;;;2.90;2.60;;;;;;;17.94;88.66;99232.47;5054080;28;20091;-82
2023/07/21 00:06:43;;;;;;;2.97;2.67;;;;;;;18.22;88.92;99274.97;5054256;28;20017;-82
2023/07/21 00:09:09;;;;;;;3.00;2.70;;;;;;;18.24;89.03;99287.03;5054177;28;20468;-82
2023/07/21 00:11:35;;;;;;;4.80;2.60;;;;;;;18.05;89.00;99256.13;5054028;28;20380;-82
2023/07/21 00:14:00;;;;;;;3.40;2.30;;;;;;;18.23;88.63;99279.28;5054148;28;20083;-82
2023/07/21 00:16:27;;;;;;;3.00;2.70;;;;;;;18.26;88.87;99281.66;5053676;28;20041;-82
2023/07/21 00:18:52;;;;;;;3.22;2.60;;;;;;;18.18;89.39;99271.75;5054044;28;20044;-82
2023/07/21 00:21:19;;;;;;;4.05;2.50;;;;;;;18.07;88.74;99256.84;5053646;28;20443;-82
2023/07/21 00:23:44;;;;;;;3.72;2.92;;;;;;;18.07;88.63;99253.38;5053952;28;20021;-82
2023/07/21 00:26:13;;;;;;;2.90;2.63;;;;;;;18.05;89.62;99264.03;5053734;28;20362;-82
2023/07/21 00:28:39;;;;;;;3.55;2.85;;;;;;;18.09;89.27;99262.00;5053957;28;20025;-82
2023/07/21 00:31:04;;;;;;;3.35;2.83;;;;;;;18.19;89.42;99284.81;5053850;28;20488;-82
2023/07/21 00:33:29;;;;;;;5.15;3.20;;;;;;;18.17;89.31;99273.56;5053557;28;20375;-82
2023/07/21 00:35:56;;;;;;;4.40;2.85;;;;;;;18.14;89.44;99270.34;5053715;28;20037;-81
2023/07/21 00:38:22;;;;;;;3.35;2.70;;;;;;;18.22;89.45;99278.44;5053566;28;20397;-82
2023/07/21 00:40:47;;;;;;;2.85;2.63;;;;;;;18.20;89.41;99275.09;5053502;28;20033;-81
2023/07/21 00:43:14;;;;;;;3.30;3.00;;;;;;;18.13;89.66;99274.78;5053759;28;20384;-82
2023/07/21 00:45:40;;;;;;;3.28;2.97;;;;;;;18.04;89.55;99259.75;5053623;28;20029;-81
2023/07/21 00:48:09;;;;;;;3.42;3.15;;;;;;;18.11;89.44;99281.97;5053529;28;20385;-82
2023/07/21 00:50:46;;;;;;;3.10;2.80;;;;;;;18.11;89.56;99281.13;5053233;28;20025;-82
2023/07/21 00:53:11;;;;;;;3.15;2.83;;;;;;;18.08;89.53;99286.69;5053223;28;20021;-82
2023/07/21 00:55:38;;;;;;;3.10;2.80;;;;;;;17.87;89.27;99253.25;5053029;28;20029;-82
2023/07/21 00:58:04;;;;;;;4.50;3.08;;;;;;;17.98;89.55;99270.78;5053339;28;20028;-82
2023/07/21 01:00:31;;;;;;;3.25;2.95;;;;;;;17.88;89.74;99261.97;5053117;28;20040;-82
2023/07/21 01:02:57;;;;;;;3.20;2.90;;;;;;;17.83;89.92;99261.53;5035227;28;20017;-81
2023/07/21 01:05:24;;;;;;;2.63;2.42;;;;;;;17.84;90.42;99279.00;5052806;28;20075;-81
2023/07/21 01:07:50;;;;;;;3.20;2.88;;;;;;;17.78;90.16;99271.59;5053350;28;20665;-82
2023/07/21 01:10:19;;;;;;;3.00;2.58;;;;;;;17.67;90.39;99262.75;5053069;28;20159;-81
2023/07/21 01:12:45;;;;;;;3.90;2.50;;;;;;;17.68;90.58;99271.50;5053136;28;20056;-82
2023/07/21 01:15:11;;;;;;;3.03;2.65;;;;;;;17.68;90.62;99272.31;5052945;28;20060;-82
2023/07/21 01:17:38;;;;;;;3.13;2.80;;;;;;;17.65;90.51;99262.03;5052569;28;20041;-82
2023/07/21 01:20:05;;;;;;;3.40;3.10;;;;;;;17.45;91.01;99239.16;5052816;28;20027;-81
2023/07/21 01:22:36;;;;;;;3.00;2.70;;;;;;;17.44;91.01;99235.69;5052763;28;20120;-82
2023/07/21 01:25:11;;;;;;;2.80;2.60;;;;;;;17.56;91.62;99268.06;5052695;28;20435;-82
2023/07/21 01:27:39;;;;;;;2.53;2.33;;;;;;;17.36;91.65;99237.25;5052511;28;20397;-82
2023/07/21 01:30:07;;;;;;;3.15;2.85;;;;;;;17.31;92.10;99237.63;5052698;28;20423;-82
2023/07/21 01:32:37;;;;;;;3.38;2.80;;;;;;;17.40;91.81;99257.09;5051775;28;20384;-82
2023/07/21 01:35:07;;;;;;;3.42;2.85;;;;;;;17.26;92.00;99244.22;5052665;28;20025;-81
2023/07/21 01:37:37;;;;;;;3.08;2.78;;;;;;;17.35;91.89;99259.28;5052685;28;20033;-81
2023/07/21 01:40:06;;;;;;;4.18;3.50;;;;;;;17.29;91.94;99249.25;5052521;28;20031;-81
2023/07/21 01:42:33;;;;;;;3.22;2.70;;;;;;;17.26;92.57;99260.03;5052157;28;20425;-82
2023/07/21 01:44:58;;;;;;;2.80;2.50;;;;;;;17.05;92.51;99234.47;5052669;28;20373;-82
2023/07/21 01:47:24;;;;;;;2.85;2.58;;;;;;;16.92;93.28;99229.34;5052029;28;20032;-82
2023/07/21 01:49:51;;;;;;;3.33;2.70;;;;;;;17.11;93.66;99265.56;5052371;28;20025;-82
2023/07/21 01:52:18;;;;;;;3.78;2.53;;;;;;;17.03;93.71;99257.44;5052128;28;20029;-82
2023/07/21 01:54:48;;;;;;;3.10;2.80;;;;;;;16.91;93.66;99240.00;5052394;28;20017;-82
2023/07/21 01:57:26;;;;;;;3.90;2.50;;;;;;;16.81;93.61;99233.78;5052169;28;20036;-82
2023/07/21 01:59:54;;;;;;;3.15;2.50;;;;;;;16.82;93.76;99246.81;5052105;28;20132;-82
2023/07/21 02:02:20;;;;;;;3.97;2.70;;;;;;;16.78;94.04;99244.56;5052036;28;20436;-82
2023/07/21 02:04:52;;;;;;;2.90;2.70;;;;;;;16.79;94.08;99251.47;5052205;28;20328;-82
2023/07/21 02:07:20;;;;;;;2.63;2.42;;;;;;;16.72;94.14;99248.44;5051886;28;20032;-82
2023/07/21 02:09:51;;;;;;;2.70;2.50;;;;;;;16.68;94.30;99244.38;5052154;28;20029;-82
2023/07/21 02:12:16;;;;;;;5.50;2.75;;;;;;;16.59;94.46;99237.22;5051976;28;20029;-82
2023/07/21 02:14:41;;;;;;;2.85;2.50;;;;;;;16.66;94.45;99251.56;5051828;28;20064;-82
2023/07/21 02:17:07;;;;;;;3.30;2.45;;;;;;;16.66;94.39;99254.19;5051957;28;20056;-82
2023/07/21 02:19:32;;;;;;;2.70;2.47;;;;;;;16.68;94.25;99260.16;5051826;28;20551;-82
2023/07/21 02:21:58;;;;;;;3.47;2.40;;;;;;;16.57;94.06;99239.16;5051958;28;20033;-82
2023/07/21 02:24:24;;;;;;;2.60;2.40;;;;;;;16.55;93.86;99249.75;5051851;28;20021;-82
2023/07/21 02:26:49;;;;;;;2.60;2.40;;;;;;;16.44;94.01;99234.84;5052061;28;20056;-82
2023/07/21 02:29:14;;;;;;;2.88;2.65;;;;;;;16.33;94.12;99231.38;5052009;28;20025;-82
2023/07/21 02:31:40;;;;;;;3.03;2.60;;;;;;;16.48;93.99;99253.84;5051445;28;20025;-81
2023/07/21 02:34:05;;;;;;;3.17;2.78;;;;;;;16.40;94.61;99248.34;5051763;28;20036;-82
2023/07/21 02:36:31;;;;;;;2.80;2.55;;;;;;;16.39;95.45;99252.75;5051455;28;20036;-82
2023/07/21 02:38:56;;;;;;;3.95;2.40;;;;;;;16.36;95.16;99252.16;5051769;28;20025;-82
2023/07/21 02:41:22;;;;;;;3.00;2.40;;;;;;;16.27;94.89;99248.44;5051646;28;20036;-82
2023/07/21 02:43:47;;;;;;;3.03;2.45;;;;;;;16.11;95.01;99232.16;5051716;28;20442;-82
2023/07/21 02:46:14;;;;;;;2.70;2.50;;;;;;;16.17;95.34;99250.09;5055921;28;20025;-82
2023/07/21 02:48:40;;;;;;;3.42;3.13;;;;;;;16.18;96.59;99259.63;5055534;28;20031;-82
2023/07/21 02:51:05;;;;;;;4.60;2.72;;;;;;;15.87;96.53;99221.72;5055817;28;20480;-82
2023/07/21 02:53:31;;;;;;;3.40;3.10;;;;;;;15.97;97.65;99256.88;5055419;28;20025;-82
2023/07/21 02:55:59;;;;;;;3.10;2.70;;;;;;;15.80;97.78;99245.00;5055412;28;20491;-81
2023/07/21 02:58:26;;;;;;;3.03;2.80;;;;;;;15.80;98.00;99252.00;5055516;28;20558;-82
2023/07/21 03:00:57;;;;;;;3.30;3.00;;;;;;;15.89;98.20;99275.81;5055562;28;20041;-81
2023/07/21 03:03:25;;;;;;;3.43;2.73;;;;;;;15.78;98.52;99269.69;5037406;28;20028;-82
2023/07/21 03:05:51;;;;;;;4.43;2.92;;;;;;;15.78;99.12;99280.19;5055423;28;20068;-81
2023/07/21 03:08:19;;;;;;;3.60;3.00;;;;;;;15.67;99.96;99287.06;5055353;28;20052;-82
2023/07/21 03:10:45;;;;;;;3.42;3.13;;;;;;;15.65;100.00;99280.25;5055348;28;20028;-82
2023/07/21 03:13:12;;;;;;;4.05;2.95;;;;;;;15.53;100.00;99275.88;5055376;28;20108;-81
2023/07/21 03:15:38;;;;;;;3.55;3.13;;;;;;;15.54;100.00;99288.03;5054682;28;20373;-81
2023/07/21 03:18:04;;;;;;;3.05;2.75;;;;;;;15.51;100.00;99285.66;5055251;28;20108;-81
2023/07/21 03:20:29;;;;;;;3.22;3.03;;;;;;;15.35;100.00;99257.06;5054958;28;20104;-81
2023/07/21 03:22:55;;;;;;;3.05;2.75;;;;;;;15.47;100.00;99285.88;5055022;28;20465;-82
2023/07/21 03:25:20;;;;;;;3.78;3.47;;;;;;;15.30;100.00;99261.81;5055306;28;20118;-81
2023/07/21 03:27:46;;;;;;;3.33;3.03;;;;;;;15.32;100.00;99262.50;5036781;28;20032;-81
2023/07/21 03:30:13;;;;;;;4.00;2.97;;;;;;;15.30;100.00;99267.06;5055080;28;20029;-81
2023/07/21 03:32:39;;;;;;;3.63;3.08;;;;;;;15.33;100.00;99262.38;5054845;28;20479;-81
2023/07/21 03:35:05;;;;;;;2.92;2.63;;;;;;;15.28;100.00;99261.06;5054850;28;20155;-82
2023/07/21 03:37:34;;;;;;;2.75;2.55;;;;;;;15.46;100.00;99292.06;5054610;28;20025;-81
2023/07/21 03:40:00;;;;;;;4.65;2.78;;;;;;;15.40;100.00;99292.50;5054964;28;20476;-81
2023/07/21 03:42:26;;;;;;;4.15;2.47;;;;;;;15.43;100.00;99291.44;5054694;28;20484;-82
2023/07/21 03:44:51;;;;;;;3.53;2.30;;;;;;;15.41;100.00;99295.97;5054852;28;20032;-81
2023/07/21 03:47:19;;;;;;;3.00;2.80;;;;;;;15.20;100.00;99267.69;5054631;28;20025;-81
2023/07/21 03:49:47;;;;;;;2.78;2.58;;;;;;;15.31;100.00;99273.97;5054371;28;20025;-81
2023/07/21 03:52:13;;;;;;;2.83;2.63;;;;;;;15.40;100.00;99289.03;5054413;28;20062;-82
2023/07/21 03:54:39;;;;;;;4.55;2.60;;;;;;;15.41;100.00;99294.16;5054552;28;20118;-81
2023/07/21 03:57:05;;;;;;;2.95;2.65;;;;;;;15.35;100.00;99275.41;5054191;28;20084;-81
2023/07/21 03:59:30;;;;;;;3.70;2.78;;;;;;;15.39;100.00;99280.34;5054297;28;20032;-81
2023/07/21 04:01:56;;;;;;;3.03;2.63;;;;;;;15.53;100.00;99300.31;5054515;28;20029;-82
2023/07/21 04:04:21;;;;;;;3.47;2.47;;;;;;;15.55;100.00;99281.81;5054304;28;20024;-81
2023/07/21 04:06:47;;;;;;;3.83;2.55;;;;;;;15.66;99.60;99297.66;5053891;28;20025;-81
2023/07/21 04:09:13;;;;;;;3.20;2.80;;;;;;;15.74;99.08;99286.63;5054459;28;20029;-81
2023/07/21 04:11:40;;;;;;;3.88;2.72;;;;;;;15.84;98.99;99283.19;5054086;28;20021;-81
2023/07/21 04:14:05;;;;;;;3.22;2.80;;;;;;;16.14;97.47;99274.81;5054087;28;20353;-81
2023/07/21 04:16:31;;;;;;;3.45;2.83;;;;;;;17.14;93.48;99261.81;5054027;28;20051;-82
2023/07/21 04:18:56;;;;;;;3.75;3.30;;;;;;;18.86;86.70;99278.25;5053905;28;20115;-81
2023/07/21 04:21:22;;;;;;;3.63;2.80;;;;;;;20.17;81.30;99278.81;5053993;28;20090;-82
2023/07/21 04:23:48;;;;;;;2.70;2.50;;;;;;;20.49;79.35;99263.63;5053925;28;20350;-82
2023/07/21 04:26:15;;;;;;;3.58;2.85;;;;;;;20.31;79.03;99260.84;5054338;28;20480;-82
2023/07/21 04:28:41;;;;;;;4.78;3.58;;;;;;;20.07;79.61;99256.88;5053667;28;20434;-82
2023/07/21 04:31:08;;;;;;;2.60;2.40;;;;;;;20.02;80.15;99276.78;5053812;28;20112;-82
2023/07/21 04:33:35;;;;;;;4.13;2.60;;;;;;;20.03;79.14;99268.69;5053574;28;20029;-82
2023/07/21 04:36:01;;;;;;;4.82;2.65;;;;;;;20.51;77.90;99275.72;5053477;28;20021;-83
2023/07/21 04:38:26;;;;;;;3.17;2.38;;;;;;;21.27;75.29;99285.28;5035747;28;20021;-82
2023/07/21 04:40:52;;;;;;;2.70;2.38;;;;;;;22.54;70.12;99280.59;5053502;28;20051;-83
2023/07/21 04:43:17;;;;;;;2.78;2.20;;;;;;;23.64;66.68;99266.44;5053924;28;20373;-83
2023/07/21 04:45:43;;;;;;;2.50;2.30;;;;;;;24.37;64.44;99263.81;5053280;28;20029;-83
2023/07/21 04:48:08;;;;;;;2.20;2.00;;;;;;;24.51;63.40;99267.59;5053401;28;20025;-83
2023/07/21 04:50:34;;;;;;;2.20;2.00;;;;;;;24.15;64.12;99285.78;5053150;28;20033;-83
2023/07/21 04:53:01;;;;;;;2.05;1.85;;;;;;;23.56;64.93;99275.25;5053583;28;20082;-83
2023/07/21 04:55:27;;;;;;;2.30;2.10;;;;;;;23.07;65.64;99264.47;5053412;28;20052;-83
2023/07/21 04:57:52;;;;;;;2.17;1.88;;;;;;;23.00;65.72;99273.25;5053253;28;20091;-83
2023/07/21 05:00:18;;;;;;;1.92;1.80;;;;;;;23.15;65.22;99261.03;5053183;28;20024;-84
2023/07/21 05:02:43;;;;;;;2.40;2.20;;;;;;;24.15;62.57;99273.28;5052907;28;20104;-84
2023/07/21 05:05:09;;;;;;;2.38;1.88;;;;;;;25.42;58.17;99276.91;5053027;28;20033;-84
2023/07/21 05:07:34;;;;;;;2.33;1.90;;;;;;;26.52;56.48;99271.22;5052262;28;20025;-84
2023/07/21 05:09:59;;;;;;;2.95;1.92;;;;;;;26.95;54.47;99282.09;5053187;28;20033;-84
2023/07/21 05:12:25;;;;;;;2.60;1.77;;;;;;;26.36;55.42;99256.16;5053090;28;20109;-84
2023/07/21 05:14:51;;;;;;;2.50;2.03;;;;;;;25.80;56.00;99269.84;5052708;28;20013;-84
2023/07/21 05:17:17;;;;;;;1.80;1.70;;;;;;;25.32;57.12;99270.97;5052729;28;20083;-84
2023/07/21 05:19:44;;;;;;;2.25;1.98;;;;;;;24.82;57.36;99250.88;5052540;28;20110;-84
2023/07/21 05:22:09;;;;;;;2.13;1.70;;;;;;;24.78;56.65;99273.53;5053046;28;20036;-84
2023/07/21 05:24:34;;;;;;;1.90;1.52;;;;;;;25.06;55.82;99263.25;5052670;28;20037;-84
2023/07/21 05:27:00;;;;;;;1.77;1.65;;;;;;;26.29;54.58;99266.72;5052754;28;20055;-84
2023/07/21 05:29:25;;;;;;;2.00;1.70;;;;;;;26.79;53.23;99259.06;5052760;28;20029;-84
2023/07/21 05:31:52;;;;;;;2.63;1.67;;;;;;;26.65;54.12;99268.75;5052371;28;20106;-84
2023/07/21 05:34:17;;;;;;;2.30;1.52;;;;;;;26.24;54.88;99258.44;5052470;28;20095;-84
2023/07/21 05:36:43;;;;;;;1.83;1.73;;;;;;;25.69;55.11;99251.56;5052737;28;20442;-84
2023/07/21 05:39:08;;;;;;;2.50;1.98;;;;;;;25.41;56.13;99267.25;5052543;28;20032;-84
2023/07/21 05:41:33;;;;;;;2.40;1.50;;;;;;;24.87;56.65;99265.31;5052300;28;20031;-84
2023/07/21 05:43:59;;;;;;;3.13;1.42;;;;;;;24.62;56.99;99250.44;5052427;28;20112;-84
2023/07/21 05:46:24;;;;;;;3.42;1.90;;;;;;;24.69;56.50;99253.22;5052352;28;20025;-84
2023/07/21 05:48:50;;;;;;;4.40;1.80;;;;;;;24.61;56.90;99243.47;5052092;28;20469;-83
2023/07/21 05:51:17;;;;;;;1.98;1.83;;;;;;;24.63;57.02;99260.91;5052418;28;20032;-84
2023/07/21 05:53:42;;;;;;;3.33;1.77;;;;;;;24.34;56.78;99226.00;5052029;28;20365;-84
2023/07/21 05:56:07;;;;;;;3.10;2.05;;;;;;;24.43;57.17;99243.66;5052255;28;20028;-84
2023/07/21 05:58:35;;;;;;;4.22;2.15;;;;;;;24.29;58.06;99239.84;5052001;28;20522;-84
2023/07/21 06:01:00;;;;;;;1.67;1.58;;;;;;;24.20;57.46;99259.47;5051944;28;20662;-84
2023/07/21 06:03:26;;;;;;;1.77;1.67;;;;;;;24.11;56.99;99255.19;5051989;28;20064;-84
2023/07/21 06:05:52;;;;;;;1.45;1.35;;;;;;;24.36;57.88;99267.44;5051566;28;20797;-83
2023/07/21 06:08:18;;;;;;;1.70;1.60;;;;;;;24.41;56.59;99264.31;5052206;28;20033;-84
2023/07/21 06:10:44;;;;;;;2.13;1.80;;;;;;;24.57;56.83;99266.94;5051979;28;20025;-83
2023/07/21 06:13:10;;;;;;;1.67;1.58;;;;;;;24.66;56.54;99261.59;5051933;28;20461;-83
2023/07/21 06:15:36;;;;;;;3.10;1.40;;;;;;;24.80;57.34;99248.38;5051504;28;20025;-83
2023/07/21 06:18:03;;;;;;;1.90;1.70;;;;;;;25.10;56.41;99254.75;5051606;28;20048;-84
2023/07/21 06:20:28;;;;;;;2.05;1.60;;;;;;;25.58;56.05;99281.31;5052024;28;20491;-83
2023/07/21 06:22:54;;;;;;;1.50;1.40;;;;;;;25.68;55.56;99236.56;5051681;28;20025;-83
2023/07/21 06:25:19;;;;;;;1.63;1.45;;;;;;;25.92;54.63;99256.91;5051869;28;20392;-83
2023/07/21 06:27:47;;;;;;;2.50;1.90;;;;;;;25.85;53.58;99262.13;5051544;28;20151;-84
2023/07/21 06:30:14;;;;;;;1.92;1.70;;;;;;;25.70;54.60;99263.88;5051765;28;20032;-83
2023/07/21 06:32:40;;;;;;;2.42;1.60;;;;;;;25.75;54.76;99266.84;5051380;28;20402;-84
2023/07/21 06:35:07;;;;;;;1.65;1.50;;;;;;;25.73;55.74;99246.69;5051726;28;20024;-83
2023/07/21 06:37:33;;;;;;;1.70;1.60;;;;;;;25.92;54.08;99254.25;5052054;28;20035;-83
2023/07/21 06:39:58;;;;;;;2.05;1.50;;;;;;;26.33;55.13;99244.00;5051531;28;20108;-83
2023/07/21 06:42:24;;;;;;;2.25;1.50;;;;;;;26.92;53.59;99247.72;5051710;28;20446;-82
2023/07/21 06:44:49;;;;;;;3.30;1.58;;;;;;;27.15;50.20;99263.66;5051369;28;20021;-83
2023/07/21 06:47:16;;;;;;;2.33;1.30;;;;;;;27.64;51.16;99257.59;5051460;28;20145;-83
2023/07/21 06:49:41;;;;;;;1.60;1.50;;;;;;;28.35;50.68;99261.94;5051458;28;20032;-83
2023/07/21 06:52:08;;;;;;;1.70;1.58;;;;;;;28.51;50.89;99225.16;5051798;28;20380;-83
2023/07/21 06:54:35;;;;;;;1.65;1.55;;;;;;;29.12;50.35;99264.66;5051497;28;20078;-84
2023/07/21 06:57:00;;;;;;;2.95;1.92;;;;;;;29.41;49.77;99266.19;5051660;28;20032;-82
2023/07/21 06:59:26;;;;;;;1.75;1.60;;;;;;;29.73;49.33;99251.22;5051739;28;20032;-81
2023/07/21 07:01:51;;;;;;;3.40;1.50;;;;;;;30.16;47.93;99240.91;5050512;28;20029;-82
2023/07/21 07:04:16;;;;;;;1.70;1.60;;;;;;;31.01;47.75;99265.13;5051619;28;20072;-81
2023/07/21 07:06:42;;;;;;;1.63;1.45;;;;;;;31.66;46.47;99260.47;5051283;28;20021;-81
2023/07/21 07:09:08;;;;;;;2.05;1.63;;;;;;;32.51;45.54;99255.44;5051359;28;20017;-82
2023/07/21 07:11:34;;;;;;;1.88;1.60;;;;;;;32.69;44.80;99237.59;5051175;28;20123;-81
2023/07/21 07:13:59;;;;;;;2.08;1.70;;;;;;;33.52;44.88;99270.22;5050961;28;20048;-82
2023/07/21 07:16:25;;;;;;;1.73;1.63;;;;;;;34.45;42.81;99254.38;5051154;28;20056;-82
2023/07/21 07:18:51;;;;;;;2.20;2.00;;;;;;;35.20;41.97;99240.81;5051056;28;20032;-82
2023/07/21 07:21:16;;;;;;;2.50;1.77;;;;;;;35.94;41.75;99259.72;5051336;28;20376;-82
2023/07/21 07:23:42;;;;;;;1.83;1.73;;;;;;;35.75;41.75;99231.25;5051259;28;20025;-82
2023/07/21 07:26:08;;;;;;;1.50;1.40;;;;;;;35.68;41.05;99249.56;5051265;28;20033;-82
2023/07/21 07:28:34;;;;;;;2.75;1.63;;;;;;;34.79;40.42;99255.41;5051075;28;20025;-81
2023/07/21 07:31:04;;;;;;;1.60;1.50;;;;;;;33.38;42.27;99236.34;5052104;28;20593;-81
2023/07/21 07:33:31;;;;;;;1.65;1.42;;;;;;;33.48;42.82;99243.91;5036992;28;20048;-81
2023/07/21 07:35:57;;;;;;;1.70;1.38;;;;;;;34.10;42.40;99244.41;5054558;28;20362;-82
2023/07/21 07:38:26;;;;;;;1.63;1.52;;;;;;;34.53;42.71;99228.88;5055038;28;20028;-82
2023/07/21 07:40:53;;;;;;;1.85;1.75;;;;;;;35.94;41.49;99250.78;5054374;28;20028;-81
2023/07/21 07:43:20;;;;;;;1.70;1.60;;;;;;;37.27;40.21;99258.88;5054596;28;20071;-82
2023/07/21 07:45:47;;;;;;;1.50;1.40;;;;;;;38.30;38.17;99247.00;5036793;28;20044;-82
2023/07/21 07:48:14;;;;;;;1.45;1.35;;;;;;;39.08;38.32;99231.63;5019497;28;20041;-82
2023/07/21 07:50:41;;;;;;;3.08;1.48;;;;;;;39.86;37.25;99256.00;5054407;28;20561;-82
2023/07/21 07:53:09;;;;;;;1.50;1.40;;;;;;;40.51;37.55;99247.22;5054389;28;20468;-82
2023/07/21 07:55:38;;;;;;;1.60;1.50;;;;;;;41.05;36.57;99221.91;5054297;28;20468;-82
2023/07/21 07:58:04;;;;;;;1.52;1.42;;;;;;;41.53;36.50;99219.41;5054027;28;20476;-82
2023/07/21 08:00:29;;;;;;;1.48;1.38;;;;;;;41.45;35.25;99242.69;5054486;28;20029;-82
2023/07/21 08:02:55;;;;;;;2.75;1.50;;;;;;;41.57;35.55;99237.69;5054263;28;20021;-82
2023/07/21 08:05:21;;;;;;;1.70;1.60;;;;;;;41.71;35.63;99223.34;5054341;28;20404;-82
2023/07/21 08:07:48;;;;;;;1.45;1.35;;;;;;;42.19;35.54;99237.97;5053841;28;20018;-83
2023/07/21 08:10:14;;;;;;;1.48;1.20;;;;;;;42.44;35.38;99236.09;5054004;28;20130;-82
2023/07/21 08:12:39;;;;;;;1.73;1.63;;;;;;;42.52;35.50;99216.25;5053957;28;20060;-82
2023/07/21 08:15:05;;;;;;;1.60;1.50;;;;;;;42.66;35.25;99221.88;5054049;28;20144;-82
2023/07/21 08:17:30;;;;;;;2.10;2.00;;;;;;;42.71;35.18;99228.09;5054067;28;20049;-82
2023/07/21 08:19:55;;;;;;;1.60;1.48;;;;;;;41.84;34.73;99225.44;5053802;28;20029;-82
2023/07/21 08:22:21;;;;;;;1.70;1.60;;;;;;;41.10;34.45;99211.75;5053954;28;20443;-82
2023/07/21 08:24:46;;;;;;;2.17;1.40;;;;;;;38.93;35.55;99216.06;5053587;28;20393;-82
2023/07/21 08:27:11;;;;;;;2.15;1.60;;;;;;;37.27;36.72;99192.88;5053768;28;20388;-82
2023/07/21 08:29:37;;;;;;;2.17;1.60;;;;;;;35.45;38.27;99207.97;5053675;28;20032;-81
2023/07/21 08:32:02;;;;;;;1.55;1.45;;;;;;;33.80;39.29;99195.84;5053619;28;20025;-81
2023/07/21 08:34:27;;;;;;;1.35;1.25;;;;;;;32.51;41.23;99185.34;5035205;28;20025;-81
2023/07/21 08:36:53;;;;;;;1.50;1.10;;;;;;;31.88;42.25;99192.81;5053171;28;20033;-81
2023/07/21 08:39:18;;;;;;;1.45;1.35;;;;;;;31.48;42.96;99187.72;5053515;28;20017;-81
2023/07/21 08:41:46;;;;;;;1.30;1.20;;;;;;;31.44;42.92;99208.03;5052364;28;20449;-81
2023/07/21 08:44:13;;;;;;;3.45;1.70;;;;;;;31.11;42.86;99203.66;5053722;28;20397;-81
2023/07/21 08:46:39;;;;;;;1.13;1.10;;;;;;;30.32;42.72;99161.75;5053577;28;20065;-81
2023/07/21 08:49:05;;;;;;;1.52;1.42;;;;;;;30.18;44.04;99193.19;5053070;28;20052;-81
2023/07/21 08:51:31;;;;;;;2.45;1.50;;;;;;;29.39;44.59;99191.28;5053664;28;20044;-81
2023/07/21 08:53:56;;;;;;;1.50;1.40;;;;;;;28.93;45.02;99193.81;5053013;28;20082;-81
2023/07/21 08:56:21;;;;;;;1.42;1.33;;;;;;;28.46;46.10;99176.72;5053018;28;20388;-81
2023/07/21 08:58:47;;;;;;;2.67;1.40;;;;;;;28.46;46.45;99166.00;5053167;28;20456;-81
2023/07/21 09:01:12;;;;;;;1.38;1.27;;;;;;;28.63;45.43;99194.13;5053303;28;20059;-81
2023/07/21 09:03:44;;;;;;;2.28;1.13;;;;;;;28.54;44.91;99190.78;5034106;28;20044;-81
2023/07/21 09:06:12;;;;;;;4.25;1.40;;;;;;;27.89;45.05;99167.88;5052978;28;20112;-81
2023/07/21 09:08:37;;;;;;;3.97;1.35;;;;;;;27.41;46.50;99159.66;5053078;28;20032;-81
2023/07/21 09:11:03;;;;;;;1.67;1.40;;;;;;;27.24;46.30;99164.44;5052601;28;20393;-80
2023/07/21 09:13:30;;;;;;;1.23;1.13;;;;;;;27.39;46.52;99183.09;5053424;28;20024;-81
2023/07/21 09:16:01;;;;;;;1.33;1.20;;;;;;;27.25;46.14;99181.28;5052356;28;20108;-81
2023/07/21 09:18:30;;;;;;;1.83;1.30;;;;;;;26.72;46.90;99164.66;5052770;28;20444;-80
2023/07/21 09:20:56;;;;;;;1.40;1.30;;;;;;;26.47;47.40;99166.81;5052543;28;20042;-81
2023/07/21 09:23:22;;;;;;;1.30;1.20;;;;;;;26.27;47.46;99161.16;5052672;28;20025;-81
2023/07/21 09:25:55;;;;;;;1.30;1.20;;;;;;;26.53;48.66;99166.06;5052650;28;20098;-81
2023/07/21 09:28:37;;;;;;;1.10;1.10;;;;;;;26.87;47.53;99152.91;5052919;28;20032;-81
2023/07/21 09:31:03;;;;;;;1.23;1.13;;;;;;;27.22;48.65;99149.59;5052527;28;20040;-81
2023/07/21 09:33:28;;;;;;;1.92;1.30;;;;;;;27.60;46.92;99169.72;5052408;28;20033;-81
2023/07/21 09:36:08;;;;;;;1.33;1.23;;;;;;;27.70;47.17;99171.22;5052344;28;20485;-81
2023/07/21 09:38:35;;;;;;;1.50;1.40;;;;;;;27.90;47.55;99171.41;5052705;28;20021;-81
2023/07/21 09:41:06;;;;;;;1.52;1.40;;;;;;;27.76;47.28;99131.16;5052769;28;20041;-81
2023/07/21 09:43:32;;;;;;;2.08;1.30;;;;;;;27.95;46.01;99161.75;5052516;28;20029;-81
2023/07/21 09:46:08;;;;;;;1.83;1.20;;;;;;;27.67;45.75;99147.50;5052036;28;20044;-81
2023/07/21 09:48:35;;;;;;;2.25;1.20;;;;;;;27.64;46.03;99172.78;5052053;28;20028;-81
2023/07/21 09:51:03;;;;;;;1.23;1.13;;;;;;;27.32;46.88;99107.31;5052370;28;20079;-81
2023/07/21 09:53:39;;;;;;;1.30;1.20;;;;;;;27.70;47.12;99139.94;5052257;28;20150;-81
2023/07/21 09:56:07;;;;;;;1.67;1.20;;;;;;;27.94;46.87;99149.41;5052139;28;20025;-81
2023/07/21 09:58:51;;;;;;;1.30;1.20;;;;;;;28.01;47.48;99138.72;5052549;28;20171;-81
2023/07/21 10:01:17;;;;;;;1.90;1.42;;;;;;;28.14;45.13;99165.59;5052267;28;20041;-81
2023/07/21 10:03:43;;;;;;;2.33;1.98;;;;;;;28.01;45.43;99136.88;5052257;28;20025;-81
2023/07/21 10:06:09;;;;;;;1.38;1.27;;;;;;;28.18;45.49;99149.94;5052164;28;20190;-81
2023/07/21 10:08:36;;;;;;;2.60;1.10;;;;;;;28.31;45.74;99158.88;5052052;28;20108;-82
2023/07/21 10:11:04;;;;;;;2.28;1.15;;;;;;;28.32;44.61;99151.69;5051751;28;20110;-81
2023/07/21 10:13:31;;;;;;;1.73;1.02;;;;;;;28.10;45.33;99132.19;5051938;28;20025;-81
2023/07/21 10:16:05;;;;;;;1.20;1.10;;;;;;;27.95;44.74;99121.63;5051648;28;20053;-81
2023/07/21 10:18:30;;;;;;;2.63;1.67;;;;;;;27.72;45.46;99131.69;5052422;28;20029;-81
2023/07/21 10:20:56;;;;;;;1.73;1.27;;;;;;;27.29;45.82;99124.56;5051806;28;20468;-82
2023/07/21 10:23:38;;;;;;;1.35;1.27;;;;;;;27.35;46.36;99147.06;5051834;28;20025;-83
2023/07/21 10:26:08;;;;;;;1.52;1.42;;;;;;;27.14;46.62;99128.31;5051753;28;20033;-81
2023/07/21 10:28:43;;;;;;;2.65;1.27;;;;;;;26.94;46.96;99147.63;5051996;28;20056;-81
2023/07/21 10:31:26;;;;;;;6.90;1.52;;;;;;;26.82;47.96;99155.31;5051451;28;20480;-81
2023/07/21 10:34:10;;;;;;;1.40;1.30;;;;;;;27.01;48.25;99151.22;5051511;28;20500;-82
2023/07/21 10:36:51;;;;;;;1.60;1.50;;;;;;;27.25;47.67;99155.38;5051600;28;20464;-82
2023/07/21 10:39:27;;;;;;;1.42;1.33;;;;;;;27.44;47.74;99142.41;5051845;28;20036;-82
2023/07/21 10:41:58;;;;;;;2.22;1.33;;;;;;;27.42;46.77;99139.06;5051547;28;20029;-82
2023/07/21 10:44:31;;;;;;;1.40;1.30;;;;;;;27.27;47.64;99112.44;5051611;28;20431;-82
2023/07/21 10:46:56;;;;;;;1.17;1.17;;;;;;;27.52;47.93;99124.38;5051271;28;20112;-82
2023/07/21 10:49:22;;;;;;;2.50;1.30;;;;;;;27.45;46.18;99117.31;5051779;28;20096;-82
2023/07/21 10:51:48;;;;;;;1.42;1.30;;;;;;;27.51;47.19;99122.69;5051709;28;20513;-82
2023/07/21 10:54:15;;;;;;;1.90;1.40;;;;;;;27.57;47.05;99113.09;5051396;28;20029;-82
2023/07/21 10:56:43;;;;;;;2.30;1.60;;;;;;;27.79;46.29;99130.75;5051459;28;20442;-82
2023/07/21 10:59:10;;;;;;;1.58;1.48;;;;;;;27.57;46.54;99100.53;5051221;28;20028;-82
2023/07/21 11:01:54;;;;;;;2.38;1.40;;;;;;;27.87;47.64;99123.63;5051251;28;20428;-82
2023/07/21 11:04:21;;;;;;;1.70;1.60;;;;;;;28.11;47.85;99125.84;5051459;28;20025;-82
2023/07/21 11:06:54;;;;;;;1.40;1.30;;;;;;;28.20;48.12;99116.63;5054576;28;20499;-82
2023/07/21 11:09:22;;;;;;;1.45;1.35;;;;;;;28.18;47.13;99094.53;5055391;28;20033;-82
2023/07/21 11:11:51;;;;;;;2.08;1.20;;;;;;;28.42;46.96;99112.00;5055298;28;20025;-82
2023/07/21 11:14:19;;;;;;;1.52;1.40;;;;;;;28.45;46.81;99100.91;5055381;28;20564;-82
2023/07/21 11:16:56;;;;;;;1.40;1.30;;;;;;;28.62;46.62;99108.59;5055362;28;20505;-82
2023/07/21 11:19:25;;;;;;;2.58;1.55;;;;;;;28.55;47.53;99095.97;5054849;28;20048;-83
2023/07/21 11:21:51;;;;;;;3.28;1.70;;;;;;;28.54;46.14;99113.09;5055151;28;20035;-83
2023/07/21 11:24:17;;;;;;;1.85;1.73;;;;;;;28.41;45.99;99106.84;5054933;28;20029;-83
2023/07/21 11:26:45;;;;;;;1.30;1.20;;;;;;;28.35;46.38;99105.75;5055252;28;20358;-84
2023/07/21 11:29:10;;;;;;;1.45;1.35;;;;;;;28.25;45.90;99103.44;5054945;28;20062;-84
2023/07/21 11:31:36;;;;;;;1.50;1.27;;;;;;;28.11;46.33;99093.72;5055045;28;20033;-84